sensor_id;sensor_type;location;lat;lon;timestamp;temperature;humidity
16064;DHT22;8136;53.172;8.256;2024-02-16T10:55:17;14.70;99.90
16064;DHT22;8136;53.172;8.256;2024-02-16T11:19:34;14.70;99.90
16064;DHT22;8136;53.172;8.256;2024-02-16T12:00:03;14.90;99.90
16064;DHT22;8136;53.172;8.256;2024-02-16T12:02:34;15.00;99.90
16064;DHT22;8136;53.172;8.256;2024-02-16T12:05:05;15.00;99.90
16064;DHT22;8136;53.172;8.256;2024-02-16T12:07:33;15.10;99.90
16064;DHT22;8136;53.172;8.256;2024-02-16T12:10:01;15.10;99.90
16064;DHT22;8136;53.172;8.256;2024-02-16T12:12:31;15.10;99.90
16064;DHT22;8136;53.172;8.256;2024-02-16T12:14:59;15.10;99.90
16064;DHT22;8136;53.172;8.256;2024-02-16T12:17:27;15.00;99.90
16064;DHT22;8136;53.172;8.256;2024-02-16T12:19:54;15.00;99.90
16064;DHT22;8136;53.172;8.256;2024-02-16T12:22:25;15.00;99.90
16064;DHT22;8136;53.172;8.256;2024-02-16T12:24:52;15.00;99.90
16064;DHT22;8136;53.172;8.256;2024-02-16T12:27:19;15.00;99.90
16064;DHT22;8136;53.172;8.256;2024-02-16T12:29:46;15.00;99.90
16064;DHT22;8136;53.172;8.256;2024-02-16T12:32:13;15.00;99.90
16064;DHT22;8136;53.172;8.256;2024-02-16T12:34:45;15.00;99.90
16064;DHT22;8136;53.172;8.256;2024-02-16T12:37:12;14.90;99.90
16064;DHT22;8136;53.172;8.256;2024-02-16T12:39:41;14.90;99.90
16064;DHT22;8136;53.172;8.256;2024-02-16T12:42:08;14.70;99.90
16064;DHT22;8136;53.172;8.256;2024-02-16T12:44:35;14.60;99.90
16064;DHT22;8136;53.172;8.256;2024-02-16T12:47:02;14.50;99.90
16064;DHT22;8136;53.172;8.256;2024-02-16T12:49:44;14.50;99.90
16064;DHT22;8136;53.172;8.256;2024-02-16T12:52:20;14.50;99.90
16064;DHT22;8136;53.172;8.256;2024-02-16T12:54:48;14.50;99.90
16064;DHT22;8136;53.172;8.256;2024-02-16T12:57:15;14.50;99.90
16064;DHT22;8136;53.172;8.256;2024-02-16T12:59:41;14.50;99.90
16064;DHT22;8136;53.172;8.256;2024-02-16T13:02:19;14.40;99.90
16064;DHT22;8136;53.172;8.256;2024-02-16T13:04:48;14.50;99.90
16064;DHT22;8136;53.172;8.256;2024-02-16T13:07:15;14.40;99.90
16064;DHT22;8136;53.172;8.256;2024-02-16T13:09:42;14.40;99.90
16064;DHT22;8136;53.172;8.256;2024-02-16T13:12:10;14.40;99.90
16064;DHT22;8136;53.172;8.256;2024-02-16T13:14:37;14.40;99.90
16064;DHT22;8136;53.172;8.256;2024-02-16T13:17:12;14.40;99.90
16064;DHT22;8136;53.172;8.256;2024-02-16T13:19:42;14.40;99.90
16064;DHT22;8136;53.172;8.256;2024-02-16T13:22:10;14.30;99.90
16064;DHT22;8136;53.172;8.256;2024-02-16T13:24:37;14.30;99.90
16064;DHT22;8136;53.172;8.256;2024-02-16T13:27:04;14.20;99.90
16064;DHT22;8136;53.172;8.256;2024-02-16T13:29:32;14.10;99.90
16064;DHT22;8136;53.172;8.256;2024-02-16T13:31:59;14.00;99.90
16064;DHT22;8136;53.172;8.256;2024-02-16T13:34:26;13.90;99.90
16064;DHT22;8136;53.172;8.256;2024-02-16T13:36:53;13.80;99.90
16064;DHT22;8136;53.172;8.256;2024-02-16T13:39:24;13.70;99.90
16064;DHT22;8136;53.172;8.256;2024-02-16T13:41:53;13.60;99.90
16064;DHT22;8136;53.172;8.256;2024-02-16T13:44:23;13.60;99.90
16064;DHT22;8136;53.172;8.256;2024-02-16T13:46:50;13.50;99.90
16064;DHT22;8136;53.172;8.256;2024-02-16T13:49:16;13.40;99.90
16064;DHT22;8136;53.172;8.256;2024-02-16T13:51:45;13.30;99.90
16064;DHT22;8136;53.172;8.256;2024-02-16T13:54:16;13.30;99.90
16064;DHT22;8136;53.172;8.256;2024-02-16T13:56:44;13.20;99.90
16064;DHT22;8136;53.172;8.256;2024-02-16T13:59:11;13.20;99.90
16064;DHT22;8136;53.172;8.256;2024-02-16T14:01:38;13.20;99.90
16064;DHT22;8136;53.172;8.256;2024-02-16T14:04:05;13.20;99.90
16064;DHT22;8136;53.172;8.256;2024-02-16T14:06:32;13.30;99.90
16064;DHT22;8136;53.172;8.256;2024-02-16T14:09:01;13.30;99.90
16064;DHT22;8136;53.172;8.256;2024-02-16T14:11:40;13.20;99.90
16064;DHT22;8136;53.172;8.256;2024-02-16T14:17:24;13.20;99.90
16064;DHT22;8136;53.172;8.256;2024-02-16T14:23:15;13.20;99.90
16064;DHT22;8136;53.172;8.256;2024-02-16T14:25:48;13.20;99.90
16064;DHT22;8136;53.172;8.256;2024-02-16T14:28:29;13.20;99.90
16064;DHT22;8136;53.172;8.256;2024-02-16T14:31:06;13.20;99.90
16064;DHT22;8136;53.172;8.256;2024-02-16T14:33:49;13.20;99.90
16064;DHT22;8136;53.172;8.256;2024-02-16T14:39:04;13.10;99.90
16064;DHT22;8136;53.172;8.256;2024-02-16T14:41:48;13.10;99.90
16064;DHT22;8136;53.172;8.256;2024-02-16T14:44:17;13.10;99.90
16064;DHT22;8136;53.172;8.256;2024-02-16T14:46:46;13.10;99.90
16064;DHT22;8136;53.172;8.256;2024-02-16T14:49:13;13.00;99.90
16064;DHT22;8136;53.172;8.256;2024-02-16T14:51:48;13.00;99.90
16064;DHT22;8136;53.172;8.256;2024-02-16T14:54:24;13.00;99.90
16064;DHT22;8136;53.172;8.256;2024-02-16T14:56:51;13.00;99.90
16064;DHT22;8136;53.172;8.256;2024-02-16T14:59:25;13.00;99.90
16064;DHT22;8136;53.172;8.256;2024-02-16T15:01:57;12.90;99.90
16064;DHT22;8136;53.172;8.256;2024-02-16T15:04:56;12.80;99.90
16064;DHT22;8136;53.172;8.256;2024-02-16T15:11:12;12.70;99.90
16064;DHT22;8136;53.172;8.256;2024-02-16T15:17:09;12.50;99.90
16064;DHT22;8136;53.172;8.256;2024-02-16T15:19:39;12.50;99.90
16064;DHT22;8136;53.172;8.256;2024-02-16T15:22:22;12.50;99.90
16064;DHT22;8136;53.172;8.256;2024-02-16T15:24:52;12.40;99.90
16064;DHT22;8136;53.172;8.256;2024-02-16T15:27:23;12.40;99.90
16064;DHT22;8136;53.172;8.256;2024-02-16T15:29:51;12.40;99.90
16064;DHT22;8136;53.172;8.256;2024-02-16T15:32:20;12.30;99.90
16064;DHT22;8136;53.172;8.256;2024-02-16T15:34:47;12.30;99.90
16064;DHT22;8136;53.172;8.256;2024-02-16T15:37:20;12.30;99.90
16064;DHT22;8136;53.172;8.256;2024-02-16T15:39:47;12.20;99.90
16064;DHT22;8136;53.172;8.256;2024-02-16T15:42:29;12.20;99.90
16064;DHT22;8136;53.172;8.256;2024-02-16T15:44:56;12.20;99.90
16064;DHT22;8136;53.172;8.256;2024-02-16T15:47:26;12.20;99.90
16064;DHT22;8136;53.172;8.256;2024-02-16T15:49:53;12.10;99.90
16064;DHT22;8136;53.172;8.256;2024-02-16T15:52:20;12.10;99.90
16064;DHT22;8136;53.172;8.256;2024-02-16T15:54:47;12.10;99.90
16064;DHT22;8136;53.172;8.256;2024-02-16T15:57:14;12.20;99.90
16064;DHT22;8136;53.172;8.256;2024-02-16T15:59:41;12.20;99.90
16064;DHT22;8136;53.172;8.256;2024-02-16T16:02:08;12.10;99.90
16064;DHT22;8136;53.172;8.256;2024-02-16T16:04:37;12.20;99.90
16064;DHT22;8136;53.172;8.256;2024-02-16T16:07:18;12.20;99.90
16064;DHT22;8136;53.172;8.256;2024-02-16T16:09:45;12.20;99.90
16064;DHT22;8136;53.172;8.256;2024-02-16T16:12:12;12.20;99.90
16064;DHT22;8136;53.172;8.256;2024-02-16T16:14:42;12.10;99.90
16064;DHT22;8136;53.172;8.256;2024-02-16T16:17:09;12.10;99.90
16064;DHT22;8136;53.172;8.256;2024-02-16T16:19:38;12.10;99.90
16064;DHT22;8136;53.172;8.256;2024-02-16T16:22:05;12.10;99.90
16064;DHT22;8136;53.172;8.256;2024-02-16T16:24:32;12.10;99.90
16064;DHT22;8136;53.172;8.256;2024-02-16T16:26:59;12.10;99.90
16064;DHT22;8136;53.172;8.256;2024-02-16T16:29:26;12.10;99.90
16064;DHT22;8136;53.172;8.256;2024-02-16T16:31:53;12.10;99.90
16064;DHT22;8136;53.172;8.256;2024-02-16T16:34:20;12.10;99.90
16064;DHT22;8136;53.172;8.256;2024-02-16T16:36:51;12.10;99.90
16064;DHT22;8136;53.172;8.256;2024-02-16T16:39:18;12.10;99.90
16064;DHT22;8136;53.172;8.256;2024-02-16T16:41:45;12.10;99.90
16064;DHT22;8136;53.172;8.256;2024-02-16T16:44:12;12.10;99.90
16064;DHT22;8136;53.172;8.256;2024-02-16T16:46:40;12.00;99.90
16064;DHT22;8136;53.172;8.256;2024-02-16T16:49:07;12.00;99.90
16064;DHT22;8136;53.172;8.256;2024-02-16T16:51:34;12.00;99.90
16064;DHT22;8136;53.172;8.256;2024-02-16T16:54:03;12.00;99.90
16064;DHT22;8136;53.172;8.256;2024-02-16T16:56:30;12.00;99.90
16064;DHT22;8136;53.172;8.256;2024-02-16T16:58:57;12.00;99.90
16064;DHT22;8136;53.172;8.256;2024-02-16T17:01:26;12.00;99.90
16064;DHT22;8136;53.172;8.256;2024-02-16T17:03:53;12.00;99.90
16064;DHT22;8136;53.172;8.256;2024-02-16T17:06:20;12.00;99.90
16064;DHT22;8136;53.172;8.256;2024-02-16T17:08:48;12.00;99.90
16064;DHT22;8136;53.172;8.256;2024-02-16T17:11:17;12.00;99.90
16064;DHT22;8136;53.172;8.256;2024-02-16T17:13:44;12.00;99.90
16064;DHT22;8136;53.172;8.256;2024-02-16T17:16:11;12.00;99.90
16064;DHT22;8136;53.172;8.256;2024-02-16T17:18:38;12.00;99.90
16064;DHT22;8136;53.172;8.256;2024-02-16T17:21:06;12.00;99.90
16064;DHT22;8136;53.172;8.256;2024-02-16T17:23:33;12.00;99.90
16064;DHT22;8136;53.172;8.256;2024-02-16T17:26:00;12.00;99.90
16064;DHT22;8136;53.172;8.256;2024-02-16T17:28:28;12.00;99.90
16064;DHT22;8136;53.172;8.256;2024-02-16T17:30:58;12.00;99.90
16064;DHT22;8136;53.172;8.256;2024-02-16T17:33:25;12.00;99.90
16064;DHT22;8136;53.172;8.256;2024-02-16T17:35:52;12.00;99.90
16064;DHT22;8136;53.172;8.256;2024-02-16T17:38:18;12.00;99.90
16064;DHT22;8136;53.172;8.256;2024-02-16T17:40:46;12.00;99.90
16064;DHT22;8136;53.172;8.256;2024-02-16T17:43:13;12.00;99.90
16064;DHT22;8136;53.172;8.256;2024-02-16T17:45:42;12.00;99.90
16064;DHT22;8136;53.172;8.256;2024-02-16T17:48:09;12.00;99.90
16064;DHT22;8136;53.172;8.256;2024-02-16T17:50:36;12.00;99.90
16064;DHT22;8136;53.172;8.256;2024-02-16T17:53:04;11.90;99.90
16064;DHT22;8136;53.172;8.256;2024-02-16T17:55:31;11.90;99.90
16064;DHT22;8136;53.172;8.256;2024-02-16T17:57:59;11.90;99.90
16064;DHT22;8136;53.172;8.256;2024-02-16T18:21:09;12.00;99.90
16064;DHT22;8136;53.172;8.256;2024-02-16T18:23:36;12.00;99.90
16064;DHT22;8136;53.172;8.256;2024-02-16T18:26:07;12.00;99.90
16064;DHT22;8136;53.172;8.256;2024-02-16T18:28:34;12.00;99.90
16064;DHT22;8136;53.172;8.256;2024-02-16T18:31:01;12.00;99.90
16064;DHT22;8136;53.172;8.256;2024-02-16T18:33:28;11.90;99.90
16064;DHT22;8136;53.172;8.256;2024-02-16T18:35:55;12.00;99.90
16064;DHT22;8136;53.172;8.256;2024-02-16T18:38:23;11.90;99.90
16064;DHT22;8136;53.172;8.256;2024-02-16T18:40:50;12.00;99.90
16064;DHT22;8136;53.172;8.256;2024-02-16T18:43:17;12.00;99.90
16064;DHT22;8136;53.172;8.256;2024-02-16T18:45:44;12.00;99.90
16064;DHT22;8136;53.172;8.256;2024-02-16T18:48:12;12.00;99.90
16064;DHT22;8136;53.172;8.256;2024-02-16T18:50:39;12.00;99.90
16064;DHT22;8136;53.172;8.256;2024-02-16T20:15:50;11.70;99.90
16064;DHT22;8136;53.172;8.256;2024-02-16T20:18:38;11.70;99.90
16064;DHT22;8136;53.172;8.256;2024-02-16T20:21:26;11.70;99.90
16064;DHT22;8136;53.172;8.256;2024-02-16T20:24:26;11.70;99.90
16064;DHT22;8136;53.172;8.256;2024-02-16T20:27:15;11.80;99.90
16064;DHT22;8136;53.172;8.256;2024-02-16T20:30:29;11.70;99.90
16064;DHT22;8136;53.172;8.256;2024-02-16T20:32:49;11.70;99.90
16064;DHT22;8136;53.172;8.256;2024-02-16T20:35:53;11.70;99.90
16064;DHT22;8136;53.172;8.256;2024-02-16T20:39:01;11.70;99.90
16064;DHT22;8136;53.172;8.256;2024-02-16T20:41:47;11.70;99.90
16064;DHT22;8136;53.172;8.256;2024-02-16T20:44:22;11.70;99.90
16064;DHT22;8136;53.172;8.256;2024-02-16T20:47:16;11.70;99.90
16064;DHT22;8136;53.172;8.256;2024-02-16T20:53:35;11.70;99.90
16064;DHT22;8136;53.172;8.256;2024-02-16T20:56:39;11.60;99.90
16064;DHT22;8136;53.172;8.256;2024-02-16T20:59:16;11.70;99.90
16064;DHT22;8136;53.172;8.256;2024-02-16T21:02:13;11.70;99.90
16064;DHT22;8136;53.172;8.256;2024-02-16T21:08:27;11.60;99.90
16064;DHT22;8136;53.172;8.256;2024-02-16T21:11:42;11.60;99.90
16064;DHT22;8136;53.172;8.256;2024-02-16T21:14:20;11.50;99.90
16064;DHT22;8136;53.172;8.256;2024-02-16T21:23:15;11.50;99.90
16064;DHT22;8136;53.172;8.256;2024-02-16T21:25:58;11.50;99.90
16064;DHT22;8136;53.172;8.256;2024-02-16T21:29:13;11.50;99.90
16064;DHT22;8136;53.172;8.256;2024-02-16T21:35:05;11.40;99.90
16064;DHT22;8136;53.172;8.256;2024-02-16T21:38:11;11.40;99.90
16064;DHT22;8136;53.172;8.256;2024-02-16T21:41:17;11.40;99.90
16064;DHT22;8136;53.172;8.256;2024-02-16T21:46:11;11.40;99.90
16064;DHT22;8136;53.172;8.256;2024-02-16T21:48:15;11.30;99.90
16064;DHT22;8136;53.172;8.256;2024-02-16T21:51:18;11.30;99.90
16064;DHT22;8136;53.172;8.256;2024-02-16T21:54:08;11.30;99.90
16064;DHT22;8136;53.172;8.256;2024-02-16T21:57:22;11.20;99.90
16064;DHT22;8136;53.172;8.256;2024-02-16T22:00:20;11.20;99.90
16064;DHT22;8136;53.172;8.256;2024-02-16T22:03:30;11.20;99.90
16064;DHT22;8136;53.172;8.256;2024-02-16T22:06:35;11.20;99.90
16064;DHT22;8136;53.172;8.256;2024-02-16T22:09:39;11.10;99.90
16064;DHT22;8136;53.172;8.256;2024-02-16T22:12:38;11.10;99.90
16064;DHT22;8136;53.172;8.256;2024-02-16T22:15:36;11.10;99.90
16064;DHT22;8136;53.172;8.256;2024-02-16T22:18:23;11.10;99.90
16064;DHT22;8136;53.172;8.256;2024-02-16T22:21:09;11.10;99.90
16064;DHT22;8136;53.172;8.256;2024-02-16T22:24:09;11.10;99.90
16064;DHT22;8136;53.172;8.256;2024-02-16T22:26:45;11.10;99.90
16064;DHT22;8136;53.172;8.256;2024-02-16T22:29:25;11.10;99.90
16064;DHT22;8136;53.172;8.256;2024-02-16T22:32:24;11.10;99.90
16064;DHT22;8136;53.172;8.256;2024-02-16T22:38:27;11.00;99.90
16064;DHT22;8136;53.172;8.256;2024-02-16T22:41:06;11.00;99.90
16064;DHT22;8136;53.172;8.256;2024-02-16T22:46:16;11.00;99.90
16064;DHT22;8136;53.172;8.256;2024-02-16T22:48:43;11.00;99.90
16064;DHT22;8136;53.172;8.256;2024-02-16T22:51:10;10.90;99.90
16064;DHT22;8136;53.172;8.256;2024-02-16T22:53:37;11.00;99.90
16064;DHT22;8136;53.172;8.256;2024-02-16T22:56:04;10.90;99.90
16064;DHT22;8136;53.172;8.256;2024-02-16T23:05:23;10.90;99.90
